sensor_id;sensor_type;location;lat;lon;timestamp;pressure;altitude;pressure_sealevel;temperature
73673;BMP280;61972;19.480;-99.240;2023-08-07T00:01:01;77870.47;;;29.61
73673;BMP280;61972;19.480;-99.240;2023-08-07T00:03:27;77875.72;;;29.61
73673;BMP280;61972;19.480;-99.240;2023-08-07T00:05:53;77876.28;;;29.62
73673;BMP280;61972;19.480;-99.240;2023-08-07T00:08:20;77872.56;;;29.61
73673;BMP280;61972;19.480;-99.240;2023-08-07T00:10:46;77881.00;;;29.61
73673;BMP280;61972;19.480;-99.240;2023-08-07T00:13:13;77875.19;;;29.61
73673;BMP280;61972;19.480;-99.240;2023-08-07T00:15:40;77877.25;;;29.60
73673;BMP280;61972;19.480;-99.240;2023-08-07T00:18:06;77874.63;;;29.60
73673;BMP280;61972;19.480;-99.240;2023-08-07T00:20:32;77879.34;;;29.59
73673;BMP280;61972;19.480;-99.240;2023-08-07T00:22:58;77876.72;;;29.59
73673;BMP280;61972;19.480;-99.240;2023-08-07T00:25:24;77874.09;;;29.59
73673;BMP280;61972;19.480;-99.240;2023-08-07T00:27:50;77883.50;;;29.58
73673;BMP280;61972;19.480;-99.240;2023-08-07T00:30:16;77887.25;;;29.59
73673;BMP280;61972;19.480;-99.240;2023-08-07T00:32:43;77886.69;;;29.59
73673;BMP280;61972;19.480;-99.240;2023-08-07T00:35:09;77889.31;;;29.59
73673;BMP280;61972;19.480;-99.240;2023-08-07T00:37:35;77897.78;;;29.59
73673;BMP280;61972;19.480;-99.240;2023-08-07T00:40:01;77891.94;;;29.59
73673;BMP280;61972;19.480;-99.240;2023-08-07T00:42:27;77889.88;;;29.59
73673;BMP280;61972;19.480;-99.240;2023-08-07T00:44:53;77899.31;;;29.58
73673;BMP280;61972;19.480;-99.240;2023-08-07T00:47:20;77899.31;;;29.58
73673;BMP280;61972;19.480;-99.240;2023-08-07T00:49:47;77903.44;;;29.57
73673;BMP280;61972;19.480;-99.240;2023-08-07T00:52:13;77900.25;;;29.57
73673;BMP280;61972;19.480;-99.240;2023-08-07T00:54:40;77907.63;;;29.56
73673;BMP280;61972;19.480;-99.240;2023-08-07T00:57:11;77901.22;;;29.55
73673;BMP280;61972;19.480;-99.240;2023-08-07T00:59:38;77911.75;;;29.55
73673;BMP280;61972;19.480;-99.240;2023-08-07T01:02:04;77905.38;;;29.54
73673;BMP280;61972;19.480;-99.240;2023-08-07T01:04:31;77905.38;;;29.54
73673;BMP280;61972;19.480;-99.240;2023-08-07T01:06:57;77899.00;;;29.53
73673;BMP280;61972;19.480;-99.240;2023-08-07T01:09:24;77907.88;;;29.52
73673;BMP280;61972;19.480;-99.240;2023-08-07T01:14:33;77906.22;;;29.50
73673;BMP280;61972;19.480;-99.240;2023-08-07T01:17:13;77908.84;;;29.50
73673;BMP280;61972;19.480;-99.240;2023-08-07T01:19:41;77910.38;;;29.49
73673;BMP280;61972;19.480;-99.240;2023-08-07T01:22:15;77901.34;;;29.48
73673;BMP280;61972;19.480;-99.240;2023-08-07T01:24:43;77900.81;;;29.48
73673;BMP280;61972;19.480;-99.240;2023-08-07T01:29:50;77899.16;;;29.46
73673;BMP280;61972;19.480;-99.240;2023-08-07T01:35:12;77907.47;;;29.44
73673;BMP280;61972;19.480;-99.240;2023-08-07T01:37:41;77910.09;;;29.44
73673;BMP280;61972;19.480;-99.240;2023-08-07T01:40:09;77911.63;;;29.43
73673;BMP280;61972;19.480;-99.240;2023-08-07T01:42:36;77914.25;;;29.43
73673;BMP280;61972;19.480;-99.240;2023-08-07T01:45:04;77912.56;;;29.42
73673;BMP280;61972;19.480;-99.240;2023-08-07T01:47:31;77916.75;;;29.40
73673;BMP280;61972;19.480;-99.240;2023-08-07T01:49:57;77920.91;;;29.39
73673;BMP280;61972;19.480;-99.240;2023-08-07T01:52:23;77919.78;;;29.38
73673;BMP280;61972;19.480;-99.240;2023-08-07T01:54:49;77918.09;;;29.37
73673;BMP280;61972;19.480;-99.240;2023-08-07T01:57:15;77923.38;;;29.37
73673;BMP280;61972;19.480;-99.240;2023-08-07T01:59:41;77935.28;;;29.33
73673;BMP280;61972;19.480;-99.240;2023-08-07T02:02:09;77936.81;;;29.32
73673;BMP280;61972;19.480;-99.240;2023-08-07T02:04:35;77942.47;;;29.30
73673;BMP280;61972;19.480;-99.240;2023-08-07T02:07:01;77951.34;;;29.29
73673;BMP280;61972;19.480;-99.240;2023-08-07T02:09:27;77945.94;;;29.26
73673;BMP280;61972;19.480;-99.240;2023-08-07T02:11:54;77952.16;;;29.25
73673;BMP280;61972;19.480;-99.240;2023-08-07T02:14:21;77955.78;;;29.23
73673;BMP280;61972;19.480;-99.240;2023-08-07T02:16:48;77962.97;;;29.20
73673;BMP280;61972;19.480;-99.240;2023-08-07T02:19:14;77964.47;;;29.19
73673;BMP280;61972;19.480;-99.240;2023-08-07T02:21:40;77969.59;;;29.16
73673;BMP280;61972;19.480;-99.240;2023-08-07T02:24:06;77979.56;;;29.16
73673;BMP280;61972;19.480;-99.240;2023-08-07T02:26:32;77980.94;;;29.12
73673;BMP280;61972;19.480;-99.240;2023-08-07T02:28:58;77978.72;;;29.10
73673;BMP280;61972;19.480;-99.240;2023-08-07T02:31:24;77982.84;;;29.09
73673;BMP280;61972;19.480;-99.240;2023-08-07T02:33:50;77985.91;;;29.07
73673;BMP280;61972;19.480;-99.240;2023-08-07T02:36:17;77987.44;;;29.06
73673;BMP280;61972;19.480;-99.240;2023-08-07T02:38:43;77993.66;;;29.05
73673;BMP280;61972;19.480;-99.240;2023-08-07T02:41:09;78000.44;;;29.03
73673;BMP280;61972;19.480;-99.240;2023-08-07T02:43:35;77995.59;;;29.01
73673;BMP280;61972;19.480;-99.240;2023-08-07T02:46:02;77999.75;;;29.00
73673;BMP280;61972;19.480;-99.240;2023-08-07T02:48:28;78003.31;;;28.99
73673;BMP280;61972;19.480;-99.240;2023-08-07T02:50:54;78001.09;;;28.97
73673;BMP280;61972;19.480;-99.240;2023-08-07T02:53:20;78008.97;;;28.97
73673;BMP280;61972;19.480;-99.240;2023-08-07T02:55:46;78009.97;;;28.95
73673;BMP280;61972;19.480;-99.240;2023-08-07T02:58:13;78009.97;;;28.95
73673;BMP280;61972;19.480;-99.240;2023-08-07T03:00:39;78014.09;;;28.94
73673;BMP280;61972;19.480;-99.240;2023-08-07T03:03:05;78007.19;;;28.93
73673;BMP280;61972;19.480;-99.240;2023-08-07T03:05:31;78016.59;;;28.92
73673;BMP280;61972;19.480;-99.240;2023-08-07T03:07:57;78012.84;;;28.91
73673;BMP280;61972;19.480;-99.240;2023-08-07T03:10:23;78013.25;;;28.89
73673;BMP280;61972;19.480;-99.240;2023-08-07T03:12:49;78022.66;;;28.88
73673;BMP280;61972;19.480;-99.240;2023-08-07T03:15:15;78036.78;;;28.86
73673;BMP280;61972;19.480;-99.240;2023-08-07T03:17:42;78033.59;;;28.86
73673;BMP280;61972;19.480;-99.240;2023-08-07T03:20:08;78045.09;;;28.84
73673;BMP280;61972;19.480;-99.240;2023-08-07T03:22:35;78040.75;;;28.82
73673;BMP280;61972;19.480;-99.240;2023-08-07T03:25:01;78050.19;;;28.81
73673;BMP280;61972;19.480;-99.240;2023-08-07T03:27:28;78048.50;;;28.80
73673;BMP280;61972;19.480;-99.240;2023-08-07T03:29:54;78059.97;;;28.78
73673;BMP280;61972;19.480;-99.240;2023-08-07T03:32:20;78064.69;;;28.78
73673;BMP280;61972;19.480;-99.240;2023-08-07T03:34:46;78072.41;;;28.75
73673;BMP280;61972;19.480;-99.240;2023-08-07T03:37:12;78082.94;;;28.75
73673;BMP280;61972;19.480;-99.240;2023-08-07T03:39:38;78080.72;;;28.73
73673;BMP280;61972;19.480;-99.240;2023-08-07T03:42:04;78084.31;;;28.72
73673;BMP280;61972;19.480;-99.240;2023-08-07T03:44:31;78077.94;;;28.71
73673;BMP280;61972;19.480;-99.240;2023-08-07T03:46:58;78087.88;;;28.70
73673;BMP280;61972;19.480;-99.240;2023-08-07T03:49:24;78092.03;;;28.69
73673;BMP280;61972;19.480;-99.240;2023-08-07T03:51:51;78096.19;;;28.68
73673;BMP280;61972;19.480;-99.240;2023-08-07T03:54:17;78098.25;;;28.68
73673;BMP280;61972;19.480;-99.240;2023-08-07T03:56:43;78102.97;;;28.67
73673;BMP280;61972;19.480;-99.240;2023-08-07T03:59:09;78108.22;;;28.67
73673;BMP280;61972;19.480;-99.240;2023-08-07T04:01:35;78105.59;;;28.67
73673;BMP280;61972;19.480;-99.240;2023-08-07T04:04:02;78101.84;;;28.66
73673;BMP280;61972;19.480;-99.240;2023-08-07T04:06:28;78104.47;;;28.66
73673;BMP280;61972;19.480;-99.240;2023-08-07T04:08:54;78119.69;;;28.66
73673;BMP280;61972;19.480;-99.240;2023-08-07T04:11:20;78122.34;;;28.66
73673;BMP280;61972;19.480;-99.240;2023-08-07T04:13:46;78122.88;;;28.66
73673;BMP280;61972;19.480;-99.240;2023-08-07T04:16:12;78124.41;;;28.65
73673;BMP280;61972;19.480;-99.240;2023-08-07T04:18:38;78124.97;;;28.66
73673;BMP280;61972;19.480;-99.240;2023-08-07T04:21:04;78128.56;;;28.64
73673;BMP280;61972;19.480;-99.240;2023-08-07T04:23:30;78122.16;;;28.63
73673;BMP280;61972;19.480;-99.240;2023-08-07T04:25:57;78134.94;;;28.65
73673;BMP280;61972;19.480;-99.240;2023-08-07T04:28:23;78140.19;;;28.65
73673;BMP280;61972;19.480;-99.240;2023-08-07T04:30:50;78141.69;;;28.64
73673;BMP280;61972;19.480;-99.240;2023-08-07T04:33:17;78143.75;;;28.63
73673;BMP280;61972;19.480;-99.240;2023-08-07T04:35:43;78142.66;;;28.62
73673;BMP280;61972;19.480;-99.240;2023-08-07T04:38:09;78153.72;;;28.63
73673;BMP280;61972;19.480;-99.240;2023-08-07T04:40:35;78150.00;;;28.62
73673;BMP280;61972;19.480;-99.240;2023-08-07T04:43:01;78153.72;;;28.63
73673;BMP280;61972;19.480;-99.240;2023-08-07T04:45:27;78156.91;;;28.63
73673;BMP280;61972;19.480;-99.240;2023-08-07T04:47:54;78168.41;;;28.62
73673;BMP280;61972;19.480;-99.240;2023-08-07T04:50:20;78162.59;;;28.61
73673;BMP280;61972;19.480;-99.240;2023-08-07T04:52:46;78162.59;;;28.61
73673;BMP280;61972;19.480;-99.240;2023-08-07T04:55:12;78164.66;;;28.61
73673;BMP280;61972;19.480;-99.240;2023-08-07T04:57:39;78171.41;;;28.60
73673;BMP280;61972;19.480;-99.240;2023-08-07T05:00:06;78176.66;;;28.60
73673;BMP280;61972;19.480;-99.240;2023-08-07T05:02:33;78182.31;;;28.58
73673;BMP280;61972;19.480;-99.240;2023-08-07T05:04:59;78177.63;;;28.58
73673;BMP280;61972;19.480;-99.240;2023-08-07T05:07:25;78175.56;;;28.59
73673;BMP280;61972;19.480;-99.240;2023-08-07T05:09:51;78173.31;;;28.57
73673;BMP280;61972;19.480;-99.240;2023-08-07T05:12:17;78175.41;;;28.56
73673;BMP280;61972;19.480;-99.240;2023-08-07T05:14:44;78178.56;;;28.57
73673;BMP280;61972;19.480;-99.240;2023-08-07T05:17:10;78174.84;;;28.56
73673;BMP280;61972;19.480;-99.240;2023-08-07T05:19:36;78180.09;;;28.56
73673;BMP280;61972;19.480;-99.240;2023-08-07T05:22:02;78181.63;;;28.55
73673;BMP280;61972;19.480;-99.240;2023-08-07T05:24:28;78189.50;;;28.55
73673;BMP280;61972;19.480;-99.240;2023-08-07T05:27:00;78191.00;;;28.54
73673;BMP280;61972;19.480;-99.240;2023-08-07T05:29:26;78190.47;;;28.53
73673;BMP280;61972;19.480;-99.240;2023-08-07T05:31:52;78189.91;;;28.53
73673;BMP280;61972;19.480;-99.240;2023-08-07T05:34:18;78196.69;;;28.52
73673;BMP280;61972;19.480;-99.240;2023-08-07T05:36:44;78194.59;;;28.52
73673;BMP280;61972;19.480;-99.240;2023-08-07T05:39:10;78198.72;;;28.51
73673;BMP280;61972;19.480;-99.240;2023-08-07T05:41:36;78197.06;;;28.50
73673;BMP280;61972;19.480;-99.240;2023-08-07T05:44:04;78195.94;;;28.49
73673;BMP280;61972;19.480;-99.240;2023-08-07T05:46:31;78206.47;;;28.49
73673;BMP280;61972;19.480;-99.240;2023-08-07T05:48:57;78198.56;;;28.49
73673;BMP280;61972;19.480;-99.240;2023-08-07T05:51:23;78197.44;;;28.48
73673;BMP280;61972;19.480;-99.240;2023-08-07T05:53:49;78196.34;;;28.47
73673;BMP280;61972;19.480;-99.240;2023-08-07T05:56:15;78188.47;;;28.47
73673;BMP280;61972;19.480;-99.240;2023-08-07T05:58:43;78191.47;;;28.44
73673;BMP280;61972;19.480;-99.240;2023-08-07T06:01:09;78188.84;;;28.44
73673;BMP280;61972;19.480;-99.240;2023-08-07T06:03:35;78185.66;;;28.44
73673;BMP280;61972;19.480;-99.240;2023-08-07T06:06:01;78195.06;;;28.43
73673;BMP280;61972;19.480;-99.240;2023-08-07T06:08:27;78189.81;;;28.43
73673;BMP280;61972;19.480;-99.240;2023-08-07T06:10:54;78187.56;;;28.41
73673;BMP280;61972;19.480;-99.240;2023-08-07T06:13:20;78184.41;;;28.40
73673;BMP280;61972;19.480;-99.240;2023-08-07T06:15:46;78176.53;;;28.40
73673;BMP280;61972;19.480;-99.240;2023-08-07T06:18:13;78171.25;;;28.40
73673;BMP280;61972;19.480;-99.240;2023-08-07T06:20:39;78161.69;;;28.39
73673;BMP280;61972;19.480;-99.240;2023-08-07T06:23:05;78164.88;;;28.39
73673;BMP280;61972;19.480;-99.240;2023-08-07T06:25:31;78173.16;;;28.37
73673;BMP280;61972;19.480;-99.240;2023-08-07T06:27:57;78168.44;;;28.38
73673;BMP280;61972;19.480;-99.240;2023-08-07T06:30:23;78167.91;;;28.37
73673;BMP280;61972;19.480;-99.240;2023-08-07T06:32:50;78164.72;;;28.37
73673;BMP280;61972;19.480;-99.240;2023-08-07T06:35:16;78161.53;;;28.36
73673;BMP280;61972;19.480;-99.240;2023-08-07T06:37:42;78162.06;;;28.37
73673;BMP280;61972;19.480;-99.240;2023-08-07T06:40:09;78155.16;;;28.35
73673;BMP280;61972;19.480;-99.240;2023-08-07T06:42:35;78155.16;;;28.35
73673;BMP280;61972;19.480;-99.240;2023-08-07T06:45:01;78156.66;;;28.34
73673;BMP280;61972;19.480;-99.240;2023-08-07T06:47:28;78157.06;;;28.32
73673;BMP280;61972;19.480;-99.240;2023-08-07T06:49:54;78157.06;;;28.32
73673;BMP280;61972;19.480;-99.240;2023-08-07T06:52:20;78161.19;;;28.31
73673;BMP280;61972;19.480;-99.240;2023-08-07T06:54:46;78158.03;;;28.31
73673;BMP280;61972;19.480;-99.240;2023-08-07T06:57:12;78161.59;;;28.29
73673;BMP280;61972;19.480;-99.240;2023-08-07T06:59:38;78157.28;;;28.27
73673;BMP280;61972;19.480;-99.240;2023-08-07T07:02:05;78152.63;;;28.28
73673;BMP280;61972;19.480;-99.240;2023-08-07T07:04:31;78150.38;;;28.26
73673;BMP280;61972;19.480;-99.240;2023-08-07T07:06:58;78149.78;;;28.25
73673;BMP280;61972;19.480;-99.240;2023-08-07T07:09:24;78148.13;;;28.24
73673;BMP280;61972;19.480;-99.240;2023-08-07T07:11:51;78139.13;;;28.23
73673;BMP280;61972;19.480;-99.240;2023-08-07T07:14:17;78144.38;;;28.23
73673;BMP280;61972;19.480;-99.240;2023-08-07T07:16:43;78142.72;;;28.21
73673;BMP280;61972;19.480;-99.240;2023-08-07T07:19:10;78139.53;;;28.21
73673;BMP280;61972;19.480;-99.240;2023-08-07T07:21:36;78134.66;;;28.19
73673;BMP280;61972;19.480;-99.240;2023-08-07T07:24:02;78134.13;;;28.18
73673;BMP280;61972;19.480;-99.240;2023-08-07T07:26:29;78129.78;;;28.17
73673;BMP280;61972;19.480;-99.240;2023-08-07T07:28:55;78128.69;;;28.16
73673;BMP280;61972;19.480;-99.240;2023-08-07T07:31:21;78123.84;;;28.14
73673;BMP280;61972;19.480;-99.240;2023-08-07T07:33:48;78130.59;;;28.13
73673;BMP280;61972;19.480;-99.240;2023-08-07T07:36:17;78124.78;;;28.12
73673;BMP280;61972;19.480;-99.240;2023-08-07T07:38:47;78119.91;;;28.10
73673;BMP280;61972;19.480;-99.240;2023-08-07T07:41:14;78119.34;;;28.10
73673;BMP280;61972;19.480;-99.240;2023-08-07T07:43:40;78120.88;;;28.08
73673;BMP280;61972;19.480;-99.240;2023-08-07T07:46:07;78121.84;;;28.07
73673;BMP280;61972;19.480;-99.240;2023-08-07T07:48:33;78117.53;;;28.05
73673;BMP280;61972;19.480;-99.240;2023-08-07T07:51:02;78124.28;;;28.04
73673;BMP280;61972;19.480;-99.240;2023-08-07T07:53:29;78127.50;;;28.05
73673;BMP280;61972;19.480;-99.240;2023-08-07T07:55:55;78126.91;;;28.04
73673;BMP280;61972;19.480;-99.240;2023-08-07T07:58:21;78124.72;;;28.02
73673;BMP280;61972;19.480;-99.240;2023-08-07T08:00:48;78136.31;;;28.03
73673;BMP280;61972;19.480;-99.240;2023-08-07T08:03:14;78128.41;;;28.03
73673;BMP280;61972;19.480;-99.240;2023-08-07T08:05:40;78126.91;;;28.04
73673;BMP280;61972;19.480;-99.240;2023-08-07T08:08:06;78125.78;;;28.03
73673;BMP280;61972;19.480;-99.240;2023-08-07T08:10:33;78127.50;;;28.05
73673;BMP280;61972;19.480;-99.240;2023-08-07T08:12:59;78122.78;;;28.05
73673;BMP280;61972;19.480;-99.240;2023-08-07T08:15:26;78130.28;;;28.07
73673;BMP280;61972;19.480;-99.240;2023-08-07T08:17:52;78119.75;;;28.07
73673;BMP280;61972;19.480;-99.240;2023-08-07T08:20:18;78119.75;;;28.07
73673;BMP280;61972;19.480;-99.240;2023-08-07T08:22:45;78116.19;;;28.09
73673;BMP280;61972;19.480;-99.240;2023-08-07T08:25:11;78117.84;;;28.11
73673;BMP280;61972;19.480;-99.240;2023-08-07T08:27:40;78114.84;;;28.13
73673;BMP280;61972;19.480;-99.240;2023-08-07T08:30:07;78123.84;;;28.14
73673;BMP280;61972;19.480;-99.240;2023-08-07T08:32:34;78123.84;;;28.14
73673;BMP280;61972;19.480;-99.240;2023-08-07T08:35:00;78115.56;;;28.16
73673;BMP280;61972;19.480;-99.240;2023-08-07T08:37:27;78121.34;;;28.16
73673;BMP280;61972;19.480;-99.240;2023-08-07T08:39:54;78116.66;;;28.17
73673;BMP280;61972;19.480;-99.240;2023-08-07T08:42:20;78114.59;;;28.17
73673;BMP280;61972;19.480;-99.240;2023-08-07T08:44:54;78122.47;;;28.17
73673;BMP280;61972;19.480;-99.240;2023-08-07T08:47:26;78120.97;;;28.18
73673;BMP280;61972;19.480;-99.240;2023-08-07T08:50:02;78122.47;;;28.17
73673;BMP280;61972;19.480;-99.240;2023-08-07T08:52:28;78113.66;;;28.19
73673;BMP280;61972;19.480;-99.240;2023-08-07T08:54:57;78110.06;;;28.20
73673;BMP280;61972;19.480;-99.240;2023-08-07T08:57:25;78106.88;;;28.20
73673;BMP280;61972;19.480;-99.240;2023-08-07T08:59:52;78110.63;;;28.21
73673;BMP280;61972;19.480;-99.240;2023-08-07T09:02:18;78101.63;;;28.20
73673;BMP280;61972;19.480;-99.240;2023-08-07T09:04:45;78108.00;;;28.21
73673;BMP280;61972;19.480;-99.240;2023-08-07T09:07:14;78096.94;;;28.20
73673;BMP280;61972;19.480;-99.240;2023-08-07T09:09:41;78102.75;;;28.21
73673;BMP280;61972;19.480;-99.240;2023-08-07T09:12:20;78102.75;;;28.21
73673;BMP280;61972;19.480;-99.240;2023-08-07T09:14:54;78097.47;;;28.21
73673;BMP280;61972;19.480;-99.240;2023-08-07T09:17:29;78099.56;;;28.20
73673;BMP280;61972;19.480;-99.240;2023-08-07T09:19:57;78099.56;;;28.20
73673;BMP280;61972;19.480;-99.240;2023-08-07T09:22:23;78101.06;;;28.19
73673;BMP280;61972;19.480;-99.240;2023-08-07T09:24:50;78106.88;;;28.20
73673;BMP280;61972;19.480;-99.240;2023-08-07T09:27:16;78105.22;;;28.18
73673;BMP280;61972;19.480;-99.240;2023-08-07T09:29:46;78109.50;;;28.20
73673;BMP280;61972;19.480;-99.240;2023-08-07T09:32:13;78111.03;;;28.19
73673;BMP280;61972;19.480;-99.240;2023-08-07T09:34:42;78110.47;;;28.18
73673;BMP280;61972;19.480;-99.240;2023-08-07T09:37:09;78108.41;;;28.19
73673;BMP280;61972;19.480;-99.240;2023-08-07T09:39:36;78108.78;;;28.17
73673;BMP280;61972;19.480;-99.240;2023-08-07T09:42:03;78109.34;;;28.17
73673;BMP280;61972;19.480;-99.240;2023-08-07T09:44:36;78111.41;;;28.17
73673;BMP280;61972;19.480;-99.240;2023-08-07T09:47:13;78112.94;;;28.16
73673;BMP280;61972;19.480;-99.240;2023-08-07T09:49:40;78118.72;;;28.16
73673;BMP280;61972;19.480;-99.240;2023-08-07T09:52:07;78123.44;;;28.16
73673;BMP280;61972;19.480;-99.240;2023-08-07T09:54:34;78124.97;;;28.15
73673;BMP280;61972;19.480;-99.240;2023-08-07T09:57:01;78122.34;;;28.15
73673;BMP280;61972;19.480;-99.240;2023-08-07T09:59:28;78126.47;;;28.14
73673;BMP280;61972;19.480;-99.240;2023-08-07T10:01:55;78128.53;;;28.13
73673;BMP280;61972;19.480;-99.240;2023-08-07T10:04:21;78122.16;;;28.12
73673;BMP280;61972;19.480;-99.240;2023-08-07T10:06:48;78132.13;;;28.12
73673;BMP280;61972;19.480;-99.240;2023-08-07T10:09:14;78127.41;;;28.12
73673;BMP280;61972;19.480;-99.240;2023-08-07T10:11:41;78118.97;;;28.12
73673;BMP280;61972;19.480;-99.240;2023-08-07T10:14:13;78120.47;;;28.11
73673;BMP280;61972;19.480;-99.240;2023-08-07T10:16:40;78116.19;;;28.09
73673;BMP280;61972;19.480;-99.240;2023-08-07T10:19:10;78119.75;;;28.07
73673;BMP280;61972;19.480;-99.240;2023-08-07T10:21:38;78123.88;;;28.06
73673;BMP280;61972;19.480;-99.240;2023-08-07T10:24:06;78123.88;;;28.06
73673;BMP280;61972;19.480;-99.240;2023-08-07T10:26:33;78128.03;;;28.05
73673;BMP280;61972;19.480;-99.240;2023-08-07T10:29:02;78131.63;;;28.04
73673;BMP280;61972;19.480;-99.240;2023-08-07T10:31:30;78129.00;;;28.04
73673;BMP280;61972;19.480;-99.240;2023-08-07T10:33:58;78133.69;;;28.03
73673;BMP280;61972;19.480;-99.240;2023-08-07T10:36:32;78140.47;;;28.02
73673;BMP280;61972;19.480;-99.240;2023-08-07T10:39:11;78138.78;;;28.01
73673;BMP280;61972;19.480;-99.240;2023-08-07T10:41:42;78142.91;;;28.00
73673;BMP280;61972;19.480;-99.240;2023-08-07T10:44:27;78141.81;;;27.99
73673;BMP280;61972;19.480;-99.240;2023-08-07T10:46:57;78142.75;;;27.97
73673;BMP280;61972;19.480;-99.240;2023-08-07T10:49:40;78144.66;;;27.94
73673;BMP280;61972;19.480;-99.240;2023-08-07T10:52:11;78144.66;;;27.94
73673;BMP280;61972;19.480;-99.240;2023-08-07T10:54:44;78138.28;;;27.93
73673;BMP280;61972;19.480;-99.240;2023-08-07T10:57:12;78142.41;;;27.92
73673;BMP280;61972;19.480;-99.240;2023-08-07T10:59:50;78143.38;;;27.91
73673;BMP280;61972;19.480;-99.240;2023-08-07T11:02:25;78150.16;;;27.89
73673;BMP280;61972;19.480;-99.240;2023-08-07T11:04:54;78151.66;;;27.88
73673;BMP280;61972;19.480;-99.240;2023-08-07T11:07:29;78145.28;;;27.87
73673;BMP280;61972;19.480;-99.240;2023-08-07T11:09:56;78154.66;;;27.86
73673;BMP280;61972;19.480;-99.240;2023-08-07T11:12:26;78150.38;;;27.85
73673;BMP280;61972;19.480;-99.240;2023-08-07T11:14:54;78147.16;;;27.84
73673;BMP280;61972;19.480;-99.240;2023-08-07T11:17:27;78157.16;;;27.84
73673;BMP280;61972;19.480;-99.240;2023-08-07T11:19:54;78155.47;;;27.82
73673;BMP280;61972;19.480;-99.240;2023-08-07T11:22:21;78148.50;;;27.81
73673;BMP280;61972;19.480;-99.240;2023-08-07T11:24:47;78155.84;;;27.80
73673;BMP280;61972;19.480;-99.240;2023-08-07T11:27:13;78166.38;;;27.80
73673;BMP280;61972;19.480;-99.240;2023-08-07T11:29:39;78162.63;;;27.79
73673;BMP280;61972;19.480;-99.240;2023-08-07T11:32:06;78155.66;;;27.78
73673;BMP280;61972;19.480;-99.240;2023-08-07T11:34:34;78160.38;;;27.77
73673;BMP280;61972;19.480;-99.240;2023-08-07T11:37:01;78146.69;;;27.77
73673;BMP280;61972;19.480;-99.240;2023-08-07T11:39:27;78155.50;;;27.75
73673;BMP280;61972;19.480;-99.240;2023-08-07T11:41:53;78161.72;;;27.74
73673;BMP280;61972;19.480;-99.240;2023-08-07T11:44:20;78170.72;;;27.75
73673;BMP280;61972;19.480;-99.240;2023-08-07T11:46:46;78172.22;;;27.74
73673;BMP280;61972;19.480;-99.240;2023-08-07T11:49:12;78165.84;;;27.73
73673;BMP280;61972;19.480;-99.240;2023-08-07T11:51:39;78174.69;;;27.71
73673;BMP280;61972;19.480;-99.240;2023-08-07T11:54:06;78167.75;;;27.69
73673;BMP280;61972;19.480;-99.240;2023-08-07T11:56:32;78172.44;;;27.69
73673;BMP280;61972;19.480;-99.240;2023-08-07T11:58:58;78176.03;;;27.67
73673;BMP280;61972;19.480;-99.240;2023-08-07T12:01:25;78170.22;;;27.67
73673;BMP280;61972;19.480;-99.240;2023-08-07T12:04:11;78176.41;;;27.65
73673;BMP280;61972;19.480;-99.240;2023-08-07T12:06:37;78183.72;;;27.65
73673;BMP280;61972;19.480;-99.240;2023-08-07T12:09:11;78181.50;;;27.63
73673;BMP280;61972;19.480;-99.240;2023-08-07T12:11:38;78180.94;;;27.62
73673;BMP280;61972;19.480;-99.240;2023-08-07T12:14:04;78189.22;;;27.60
73673;BMP280;61972;19.480;-99.240;2023-08-07T12:16:35;78199.13;;;27.60
73673;BMP280;61972;19.480;-99.240;2023-08-07T12:19:01;78191.09;;;27.57
73673;BMP280;61972;19.480;-99.240;2023-08-07T12:21:27;78195.78;;;27.57
73673;BMP280;61972;19.480;-99.240;2023-08-07T12:23:57;78188.31;;;27.55
73673;BMP280;61972;19.480;-99.240;2023-08-07T12:26:23;78182.50;;;27.54
73673;BMP280;61972;19.480;-99.240;2023-08-07T12:28:49;78185.50;;;27.52
73673;BMP280;61972;19.480;-99.240;2023-08-07T12:31:16;78187.00;;;27.51
73673;BMP280;61972;19.480;-99.240;2023-08-07T12:33:43;78193.19;;;27.49
73673;BMP280;61972;19.480;-99.240;2023-08-07T12:36:09;78192.09;;;27.48
73673;BMP280;61972;19.480;-99.240;2023-08-07T12:38:36;78190.41;;;27.47
73673;BMP280;61972;19.480;-99.240;2023-08-07T12:41:02;78184.03;;;27.46
73673;BMP280;61972;19.480;-99.240;2023-08-07T12:43:31;78193.44;;;27.45
73673;BMP280;61972;19.480;-99.240;2023-08-07T12:45:59;78194.94;;;27.44
73673;BMP280;61972;19.480;-99.240;2023-08-07T12:48:25;78192.69;;;27.42
73673;BMP280;61972;19.480;-99.240;2023-08-07T12:50:54;78200.56;;;27.42
73673;BMP280;61972;19.480;-99.240;2023-08-07T12:53:20;78200.03;;;27.41
73673;BMP280;61972;19.480;-99.240;2023-08-07T12:55:46;78200.94;;;27.40
73673;BMP280;61972;19.480;-99.240;2023-08-07T12:58:12;78207.72;;;27.39
73673;BMP280;61972;19.480;-99.240;2023-08-07T13:00:38;78204.16;;;27.40
73673;BMP280;61972;19.480;-99.240;2023-08-07T13:03:04;78206.19;;;27.40
73673;BMP280;61972;19.480;-99.240;2023-08-07T13:05:30;78208.28;;;27.39
73673;BMP280;61972;19.480;-99.240;2023-08-07T13:07:56;78208.28;;;27.39
73673;BMP280;61972;19.480;-99.240;2023-08-07T13:10:24;78207.16;;;27.38
73673;BMP280;61972;19.480;-99.240;2023-08-07T13:12:53;78210.34;;;27.39
73673;BMP280;61972;19.480;-99.240;2023-08-07T13:15:20;78203.97;;;27.38
73673;BMP280;61972;19.480;-99.240;2023-08-07T13:17:46;78210.72;;;27.37
73673;BMP280;61972;19.480;-99.240;2023-08-07T13:20:13;78218.59;;;27.37
73673;BMP280;61972;19.480;-99.240;2023-08-07T13:22:43;78208.09;;;27.37
73673;BMP280;61972;19.480;-99.240;2023-08-07T13:25:11;78210.72;;;27.37
73673;BMP280;61972;19.480;-99.240;2023-08-07T13:27:38;78212.78;;;27.36
73673;BMP280;61972;19.480;-99.240;2023-08-07T13:30:05;78214.31;;;27.35
73673;BMP280;61972;19.480;-99.240;2023-08-07T13:32:32;78216.38;;;27.35
73673;BMP280;61972;19.480;-99.240;2023-08-07T13:34:58;78219.00;;;27.35
73673;BMP280;61972;19.480;-99.240;2023-08-07T13:37:25;78213.19;;;27.34
73673;BMP280;61972;19.480;-99.240;2023-08-07T13:39:51;78223.13;;;27.33
73673;BMP280;61972;19.480;-99.240;2023-08-07T13:42:19;78217.88;;;27.33
73673;BMP280;61972;19.480;-99.240;2023-08-07T13:44:45;78225.75;;;27.33
73673;BMP280;61972;19.480;-99.240;2023-08-07T13:47:11;78223.50;;;27.31
73673;BMP280;61972;19.480;-99.240;2023-08-07T13:49:38;78227.63;;;27.30
73673;BMP280;61972;19.480;-99.240;2023-08-07T13:52:05;78223.88;;;27.29